Time;durP1;ratioP1;P1;durP2;ratioP2;P2;SDS_P1;SDS_P2;PMS_P1;PMS_P2;Temp;Humidity;BMP_temperature;BMP_pressure;BME280_temperature;BME280_humidity;BME280_pressure;Samples;Min_cycle;Max_cycle;Signal;HPM_P1;HPM_P2
2023/10/20 00:01:39;;;;;;;71.22;31.98;;;8.60;99.90;;;;;;5072833;28;20040;-47
2023/10/20 00:04:05;;;;;;;52.10;22.70;;;8.60;99.90;;;;;;5074944;28;20051;-48
2023/10/20 00:06:31;;;;;;;57.58;27.25;;;8.50;99.90;;;;;;5076390;28;20071;-49
2023/10/20 00:08:58;;;;;;;36.38;19.10;;;8.50;99.90;;;;;;5075829;28;20097;-47
2023/10/20 00:11:25;;;;;;;62.20;28.17;;;8.50;99.90;;;;;;5068461;28;20132;-48
2023/10/20 00:13:52;;;;;;;60.80;24.35;;;8.50;99.90;;;;;;5079731;28;20294;-50
2023/10/20 00:16:28;;;;;;;58.33;24.23;;;8.50;99.90;;;;;;5066471;28;20376;-47
2023/10/20 00:19:00;;;;;;;70.43;29.98;;;8.40;99.90;;;;;;5065737;28;20051;-50
2023/10/20 00:21:27;;;;;;;53.42;23.73;;;8.50;99.90;;;;;;5075695;28;20071;-48
2023/10/20 00:23:52;;;;;;;83.38;30.30;;;8.50;99.90;;;;;;5065108;28;20082;-51
2023/10/20 00:26:18;;;;;;;68.53;28.45;;;8.50;99.90;;;;;;5068862;28;20147;-48
2023/10/20 00:28:44;;;;;;;69.55;24.85;;;8.50;99.90;;;;;;5066771;28;20075;-51
2023/10/20 00:31:11;;;;;;;48.42;21.70;;;8.50;99.90;;;;;;5063415;28;20068;-49
2023/10/20 00:33:37;;;;;;;48.63;22.05;;;8.50;99.90;;;;;;5063703;28;20056;-47
2023/10/20 00:36:04;;;;;;;51.95;25.65;;;8.40;99.90;;;;;;5072597;28;20040;-48
2023/10/20 00:38:29;;;;;;;62.85;26.20;;;8.40;99.90;;;;;;5065234;28;20049;-50
2023/10/20 00:40:55;;;;;;;61.95;27.20;;;8.40;99.90;;;;;;5072929;28;20122;-50
2023/10/20 00:43:21;;;;;;;60.58;23.02;;;8.50;99.90;;;;;;5062931;28;20048;-48
2023/10/20 00:45:47;;;;;;;56.42;23.17;;;8.50;99.90;;;;;;5063294;28;20514;-49
2023/10/20 00:48:14;;;;;;;77.85;30.33;;;8.50;99.90;;;;;;5078355;28;20038;-48
2023/10/20 00:50:40;;;;;;;90.55;30.77;;;8.40;99.90;;;;;;5071178;28;20040;-50
2023/10/20 00:53:07;;;;;;;71.45;29.20;;;8.40;99.90;;;;;;5069009;28;20029;-47
2023/10/20 00:55:33;;;;;;;70.78;28.27;;;8.50;99.90;;;;;;5069956;28;20036;-47
2023/10/20 00:57:59;;;;;;;69.18;29.13;;;8.40;99.90;;;;;;5069295;28;20371;-47
2023/10/20 01:00:25;;;;;;;52.22;22.85;;;8.40;99.90;;;;;;5068382;28;20041;-47
2023/10/20 01:02:53;;;;;;;63.28;27.58;;;8.50;99.90;;;;;;5056616;28;20043;-47
2023/10/20 01:05:25;;;;;;;68.93;28.23;;;8.40;99.90;;;;;;5064270;28;20097;-48
2023/10/20 01:07:50;;;;;;;72.57;29.10;;;8.40;99.90;;;;;;5067637;28;20048;-48
2023/10/20 01:10:16;;;;;;;77.55;28.30;;;8.50;99.90;;;;;;5063529;28;20116;-49
2023/10/20 01:12:42;;;;;;;75.13;27.45;;;8.30;99.90;;;;;;5074832;28;20177;-48
2023/10/20 01:15:08;;;;;;;50.80;23.15;;;8.30;99.90;;;;;;5071450;28;20497;-50
2023/10/20 01:17:34;;;;;;;75.43;27.92;;;8.40;99.90;;;;;;5068589;28;20330;-49
2023/10/20 01:20:04;;;;;;;72.93;27.65;;;8.30;99.90;;;;;;5067937;28;20482;-47
2023/10/20 01:22:30;;;;;;;62.10;27.70;;;8.40;99.90;;;;;;5066139;28;20060;-48
2023/10/20 01:24:56;;;;;;;58.20;23.48;;;8.30;99.90;;;;;;5069163;28;20071;-47
2023/10/20 01:27:21;;;;;;;75.70;28.42;;;8.30;99.90;;;;;;5070801;28;20046;-48
2023/10/20 01:29:47;;;;;;;65.47;26.95;;;8.40;99.90;;;;;;5069144;28;20123;-47
2023/10/20 01:32:13;;;;;;;55.88;23.67;;;8.40;99.90;;;;;;5063499;28;20036;-47
2023/10/20 01:34:39;;;;;;;39.20;18.40;;;8.40;99.90;;;;;;5070713;28;20068;-46
2023/10/20 01:37:04;;;;;;;53.42;23.10;;;8.40;99.90;;;;;;5073547;28;20043;-47
2023/10/20 01:39:30;;;;;;;65.70;27.77;;;8.30;99.90;;;;;;5070109;28;20127;-49
2023/10/20 01:41:56;;;;;;;63.13;28.23;;;8.40;99.90;;;;;;5073371;28;20392;-47
2023/10/20 01:44:22;;;;;;;75.47;27.98;;;8.40;99.90;;;;;;5074884;28;20041;-52
2023/10/20 01:46:50;;;;;;;75.22;29.05;;;8.40;99.90;;;;;;5070678;28;20105;-51
2023/10/20 01:49:19;;;;;;;54.67;24.15;;;8.30;99.90;;;;;;5079352;28;20097;-48
2023/10/20 01:51:45;;;;;;;57.53;24.73;;;8.40;99.90;;;;;;5066544;28;20057;-50
2023/10/20 01:54:10;;;;;;;62.75;25.02;;;8.30;99.90;;;;;;5068728;28;20071;-48
2023/10/20 01:56:36;;;;;;;53.60;23.98;;;8.40;99.90;;;;;;5071701;28;20032;-46
2023/10/20 01:59:03;;;;;;;68.65;26.55;;;8.40;99.90;;;;;;5076131;28;20032;-48
2023/10/20 02:01:29;;;;;;;86.67;30.70;;;8.30;99.90;;;;;;5071613;28;20048;-47
2023/10/20 02:03:55;;;;;;;55.78;22.90;;;8.40;99.90;;;;;;5071429;28;20695;-47
2023/10/20 02:06:20;;;;;;;55.33;23.80;;;8.30;99.90;;;;;;5069198;28;20097;-47
2023/10/20 02:08:46;;;;;;;47.20;22.65;;;8.30;99.90;;;;;;5075690;28;20037;-49
2023/10/20 02:11:11;;;;;;;53.88;23.30;;;8.30;99.90;;;;;;5065824;28;20501;-50
2023/10/20 02:13:38;;;;;;;45.90;20.58;;;8.30;99.90;;;;;;5061888;28;20510;-47
2023/10/20 02:16:06;;;;;;;48.67;22.63;;;8.40;99.90;;;;;;5071052;28;20109;-46
2023/10/20 02:18:32;;;;;;;67.78;29.08;;;8.30;99.90;;;;;;5072626;28;20032;-46
2023/10/20 02:21:04;;;;;;;67.63;28.45;;;8.40;99.90;;;;;;5073001;28;20041;-47
2023/10/20 02:23:30;;;;;;;51.25;23.85;;;8.30;99.90;;;;;;5069301;28;20082;-48
2023/10/20 02:26:00;;;;;;;29.30;18.83;;;8.30;99.90;;;;;;5073706;28;20044;-50
2023/10/20 02:28:26;;;;;;;66.40;26.40;;;8.30;99.90;;;;;;5061691;28;20089;-49
2023/10/20 02:30:53;;;;;;;66.13;25.10;;;8.30;99.90;;;;;;5066999;28;20047;-50
2023/10/20 02:33:18;;;;;;;69.05;27.70;;;8.30;99.90;;;;;;5065715;28;20074;-50
2023/10/20 02:35:44;;;;;;;66.03;25.85;;;8.20;99.90;;;;;;5068437;28;20040;-47
2023/10/20 02:38:10;;;;;;;70.80;27.10;;;8.30;99.90;;;;;;5074893;28;20128;-49
2023/10/20 02:40:36;;;;;;;53.25;20.30;;;8.20;99.90;;;;;;5067627;28;20127;-49
2023/10/20 02:43:01;;;;;;;65.28;26.08;;;8.20;99.90;;;;;;5070481;28;20032;-50
2023/10/20 02:45:27;;;;;;;58.85;25.48;;;8.30;99.90;;;;;;5063917;28;20053;-47
2023/10/20 02:47:52;;;;;;;40.75;17.70;;;8.20;99.90;;;;;;5071780;28;20052;-48
2023/10/20 02:50:18;;;;;;;38.25;19.90;;;8.20;99.90;;;;;;5075392;28;20051;-50
2023/10/20 02:52:44;;;;;;;65.68;26.15;;;8.30;99.90;;;;;;5067729;28;20086;-48
2023/10/20 02:55:10;;;;;;;67.25;27.02;;;8.20;99.90;;;;;;5078093;28;20335;-49
2023/10/20 02:57:36;;;;;;;43.85;23.08;;;8.20;99.90;;;;;;5071933;28;20070;-47
2023/10/20 03:00:09;;;;;;;37.60;18.45;;;8.20;99.90;;;;;;5067373;28;20041;-48
2023/10/20 03:02:36;;;;;;;58.47;26.35;;;8.30;99.90;;;;;;5068091;28;20036;-50
2023/10/20 03:05:06;;;;;;;52.20;22.77;;;8.30;99.90;;;;;;5071149;28;20036;-50
2023/10/20 03:07:32;;;;;;;49.53;22.75;;;8.20;99.90;;;;;;5063489;28;20498;-49
2023/10/20 03:09:57;;;;;;;54.83;24.90;;;8.30;99.90;;;;;;5070555;28;20036;-49
2023/10/20 03:12:24;;;;;;;39.60;19.98;;;8.10;99.90;;;;;;5067393;28;20392;-48
2023/10/20 03:14:49;;;;;;;79.80;31.23;;;8.10;99.90;;;;;;5068402;28;20048;-49
2023/10/20 03:17:16;;;;;;;71.03;28.13;;;8.20;99.90;;;;;;5065078;28;20405;-50
2023/10/20 03:19:43;;;;;;;39.85;18.40;;;8.20;99.90;;;;;;5073228;28;20059;-51
2023/10/20 03:22:08;;;;;;;52.70;25.30;;;8.20;99.90;;;;;;5075989;28;20131;-47
2023/10/20 03:24:34;;;;;;;57.15;26.48;;;8.10;99.90;;;;;;5077528;28;20521;-48
2023/10/20 03:27:00;;;;;;;48.85;22.30;;;8.10;99.90;;;;;;5075714;28;20391;-47
2023/10/20 03:29:25;;;;;;;42.97;20.65;;;8.20;99.90;;;;;;5071225;28;20123;-49
2023/10/20 03:31:51;;;;;;;49.15;24.10;;;8.10;99.90;;;;;;5079779;28;20028;-47
2023/10/20 03:34:16;;;;;;;40.00;21.20;;;8.10;99.90;;;;;;5061130;28;20040;-50
2023/10/20 03:36:42;;;;;;;70.90;29.77;;;8.10;99.90;;;;;;5064857;28;20044;-50
2023/10/20 03:39:20;;;;;;;56.15;26.77;;;8.20;99.90;;;;;;5067492;28;20037;-51
2023/10/20 03:41:47;;;;;;;;;;;8.20;99.90;;;;;;5066789;28;20037;-50
2023/10/20 03:44:12;;;;;;;58.28;26.98;;;8.10;99.90;;;;;;5064131;28;19928;-47
2023/10/20 03:46:48;;;;;;;53.70;28.45;;;8.10;99.90;;;;;;5069644;28;20498;-48
2023/10/20 03:49:15;;;;;;;47.47;22.02;;;8.20;99.90;;;;;;5062560;28;20056;-47
2023/10/20 03:51:48;;;;;;;57.97;28.57;;;8.10;99.90;;;;;;5070584;28;20413;-47
2023/10/20 03:54:15;;;;;;;46.60;21.73;;;8.10;99.90;;;;;;5062762;28;20037;-46
2023/10/20 03:56:41;;;;;;;49.40;24.70;;;8.10;99.90;;;;;;5066561;28;20040;-47
2023/10/20 03:59:08;;;;;;;53.10;23.65;;;8.10;99.90;;;;;;5064111;28;20132;-48
2023/10/20 04:01:33;;;;;;;50.97;21.88;;;8.10;99.90;;;;;;5075020;28;20041;-48
2023/10/20 04:03:59;;;;;;;49.70;23.27;;;8.20;99.90;;;;;;5062828;28;20099;-48
2023/10/20 04:06:25;;;;;;;52.55;25.40;;;8.20;99.90;;;;;;5067280;28;20044;-47
2023/10/20 04:08:50;;;;;;;44.83;21.00;;;8.10;99.90;;;;;;5071584;28;20525;-50
2023/10/20 04:11:16;;;;;;;41.80;22.40;;;8.10;99.90;;;;;;5064973;28;20044;-48
2023/10/20 04:13:42;;;;;;;44.65;21.98;;;8.10;99.90;;;;;;5065161;28;20072;-48
2023/10/20 04:16:16;;;;;;;53.65;22.55;;;8.20;99.90;;;;;;5068145;28;20073;-48
2023/10/20 04:18:43;;;;;;;48.42;24.65;;;8.10;99.90;;;;;;5066065;28;20750;-46
2023/10/20 04:21:13;;;;;;;49.63;24.52;;;8.20;99.90;;;;;;5065511;28;20382;-47
2023/10/20 04:23:39;;;;;;;63.03;26.83;;;8.10;99.90;;;;;;5064650;28;20076;-50
2023/10/20 04:26:15;;;;;;;48.60;22.35;;;8.10;99.90;;;;;;5067263;28;20056;-47
2023/10/20 04:28:42;;;;;;;23.27;16.77;;;8.10;99.90;;;;;;5065900;28;20044;-48
2023/10/20 04:50:37;;;;;;;34.47;17.92;;;8.20;99.90;;;;;;5070391;28;20512;-47
2023/10/20 04:58:14;;;;;;;40.35;21.10;;;8.20;99.90;;;;;;5069768;28;20462;-47
2023/10/20 05:00:41;;;;;;;46.75;22.50;;;8.20;99.90;;;;;;5075954;28;20348;-50
2023/10/20 05:03:29;;;;;;;48.92;23.25;;;8.10;99.90;;;;;;5069045;28;20090;-47
2023/10/20 05:06:05;;;;;;;38.72;22.05;;;8.00;99.90;;;;;;5069904;28;20047;-49
2023/10/20 05:08:30;;;;;;;20.65;12.00;;;8.20;99.90;;;;;;5074057;28;20463;-47
2023/10/20 05:10:56;;;;;;;33.13;17.75;;;8.00;99.90;;;;;;5073635;28;20072;-50
2023/10/20 05:13:22;;;;;;;37.70;20.40;;;8.20;99.90;;;;;;5074618;28;20042;-46
2023/10/20 05:15:48;;;;;;;38.17;22.08;;;8.10;99.90;;;;;;5075740;28;20086;-47
2023/10/20 05:18:14;;;;;;;35.33;20.85;;;8.10;99.90;;;;;;5070228;28;20056;-47
2023/10/20 05:20:41;;;;;;;47.63;24.38;;;8.10;99.90;;;;;;5069862;28;20115;-46
2023/10/20 05:23:07;;;;;;;31.35;18.98;;;8.20;99.90;;;;;;5072585;28;20043;-49
2023/10/20 05:25:33;;;;;;;41.92;23.52;;;8.10;99.90;;;;;;5069142;28;20037;-48
2023/10/20 05:28:00;;;;;;;28.50;16.45;;;8.10;99.90;;;;;;5076077;28;20098;-47
2023/10/20 05:30:27;;;;;;;39.28;22.25;;;8.10;99.90;;;;;;5067667;28;20044;-46
2023/10/20 05:32:53;;;;;;;41.75;21.25;;;8.20;99.90;;;;;;5070723;28;20136;-48
2023/10/20 05:35:18;;;;;;;36.63;21.23;;;8.00;99.90;;;;;;5073911;28;20131;-48
2023/10/20 05:37:44;;;;;;;33.72;19.58;;;8.00;99.90;;;;;;5066920;28;20521;-48
2023/10/20 05:40:13;;;;;;;34.38;18.95;;;8.10;99.90;;;;;;5073524;28;20041;-47
2023/10/20 05:42:38;;;;;;;24.90;15.30;;;8.10;99.90;;;;;;5074171;28;20044;-46
2023/10/20 05:45:17;;;;;;;33.85;19.08;;;8.00;99.90;;;;;;5069706;28;20041;-50
2023/10/20 05:47:43;;;;;;;29.27;16.80;;;8.00;99.90;;;;;;5075677;28;20041;-48
2023/10/20 05:50:09;;;;;;;26.08;15.13;;;8.00;99.90;;;;;;5078361;28;21288;-48
2023/10/20 05:52:35;;;;;;;34.95;20.02;;;8.00;99.90;;;;;;5074459;28;20032;-47
2023/10/20 05:55:03;;;;;;;26.85;15.60;;;8.00;99.90;;;;;;5073198;28;20509;-47
2023/10/20 05:57:29;;;;;;;25.95;16.48;;;8.00;99.90;;;;;;5071479;28;20044;-49
2023/10/20 05:59:55;;;;;;;19.70;12.15;;;8.00;99.90;;;;;;5071630;28;20052;-49
2023/10/20 06:02:21;;;;;;;28.30;17.95;;;8.00;99.90;;;;;;5070266;28;20067;-51
2023/10/20 06:04:46;;;;;;;23.10;14.15;;;8.00;99.90;;;;;;5072412;28;20502;-48
2023/10/20 06:07:12;;;;;;;24.70;14.70;;;8.00;99.90;;;;;;5075606;28;20039;-50
2023/10/20 06:09:39;;;;;;;26.52;14.18;;;8.00;99.90;;;;;;5068623;28;20043;-50
2023/10/20 06:12:07;;;;;;;29.08;14.45;;;8.00;99.90;;;;;;5073114;28;20084;-48
2023/10/20 06:14:32;;;;;;;27.45;14.98;;;7.90;99.90;;;;;;5077198;28;20383;-49
2023/10/20 06:16:58;;;;;;;26.88;16.13;;;8.00;99.90;;;;;;5072342;28;20489;-47
2023/10/20 06:19:24;;;;;;;14.32;9.63;;;8.00;99.90;;;;;;5068690;28;20044;-47
2023/10/20 06:21:50;;;;;;;25.10;15.45;;;7.80;99.90;;;;;;5070665;28;20474;-48
2023/10/20 06:24:16;;;;;;;17.48;11.43;;;7.90;99.90;;;;;;5074486;28;20070;-50
2023/10/20 06:26:42;;;;;;;17.85;12.90;;;8.00;99.90;;;;;;5066633;28;20040;-50
2023/10/20 06:29:27;;;;;;;25.02;16.02;;;8.00;99.90;;;;;;5066893;28;20028;-50
2023/10/20 06:32:24;;;;;;;21.70;13.38;;;7.90;99.90;;;;;;5066624;28;20455;-49
2023/10/20 06:34:52;;;;;;;23.30;14.30;;;8.00;99.90;;;;;;5072668;28;20153;-47
2023/10/20 06:39:56;;;;;;;22.73;14.23;;;7.90;99.90;;;;;;5068009;28;20399;-47
2023/10/20 06:42:24;;;;;;;19.85;12.50;;;7.90;99.90;;;;;;5049169;28;20120;-48
2023/10/20 06:44:50;;;;;;;23.42;14.45;;;8.00;99.90;;;;;;5069839;28;20084;-48
2023/10/20 06:47:16;;;;;;;21.45;12.90;;;7.90;99.90;;;;;;5072909;28;20060;-48
2023/10/20 06:49:42;;;;;;;20.20;11.38;;;8.00;99.90;;;;;;5066614;28;20049;-48
2023/10/20 06:52:08;;;;;;;18.83;11.50;;;7.90;99.90;;;;;;5062833;28;20043;-47
2023/10/20 06:54:34;;;;;;;19.45;13.48;;;8.00;99.90;;;;;;5064159;28;20048;-47
2023/10/20 06:57:00;;;;;;;21.13;12.60;;;8.00;99.90;;;;;;5067664;28;20036;-48
2023/10/20 06:59:25;;;;;;;17.60;11.13;;;8.00;99.90;;;;;;5066945;28;20399;-49
2023/10/20 07:01:52;;;;;;;16.83;9.98;;;8.00;99.90;;;;;;5064408;28;20084;-49
2023/10/20 07:04:17;;;;;;;18.45;10.98;;;8.00;99.90;;;;;;5065672;28;20059;-48
2023/10/20 07:06:43;;;;;;;14.80;9.77;;;8.00;99.90;;;;;;5065964;28;20040;-47
2023/10/20 07:09:13;;;;;;;17.25;11.55;;;7.80;99.90;;;;;;5066727;28;20407;-49
2023/10/20 07:11:39;;;;;;;13.10;9.23;;;7.90;99.90;;;;;;5067846;28;20047;-51
2023/10/20 07:14:05;;;;;;;21.35;13.43;;;7.80;99.90;;;;;;5062956;28;20044;-51
2023/10/20 07:16:31;;;;;;;11.65;7.70;;;7.90;99.90;;;;;;5068029;28;20039;-50
2023/10/20 07:18:57;;;;;;;16.90;11.55;;;7.90;99.90;;;;;;5068080;28;20037;-49
2023/10/20 07:21:23;;;;;;;17.65;11.52;;;7.90;99.90;;;;;;5070174;28;20128;-51
2023/10/20 07:23:48;;;;;;;14.20;9.75;;;7.70;99.90;;;;;;5068089;28;20541;-51
2023/10/20 07:26:17;;;;;;;16.35;8.85;;;7.80;99.90;;;;;;5065624;28;20048;-50
2023/10/20 07:28:44;;;;;;;18.13;10.30;;;7.70;99.90;;;;;;5064279;28;20449;-50
2023/10/20 07:31:14;;;;;;;14.38;10.32;;;7.80;99.90;;;;;;5066268;28;20047;-50
2023/10/20 07:33:40;;;;;;;13.73;9.07;;;7.80;99.90;;;;;;5063240;28;20143;-48
2023/10/20 07:36:06;;;;;;;11.15;8.43;;;7.70;99.90;;;;;;5054706;28;20144;-47
2023/10/20 07:38:31;;;;;;;16.65;9.43;;;7.70;99.90;;;;;;5056963;28;20032;-48
2023/10/20 07:41:06;;;;;;;9.93;7.53;;;7.80;99.90;;;;;;5063045;28;20115;-48
2023/10/20 07:43:33;;;;;;;12.68;9.13;;;7.80;99.90;;;;;;5065429;28;20127;-50
2023/10/20 07:45:58;;;;;;;11.07;7.25;;;7.70;99.90;;;;;;5069658;28;20040;-51
2023/10/20 07:48:25;;;;;;;7.07;5.22;;;7.80;99.90;;;;;;5059398;28;20048;-48
2023/10/20 07:50:52;;;;;;;7.60;6.22;;;7.70;99.90;;;;;;5068531;28;20258;-48
2023/10/20 07:53:21;;;;;;;10.82;6.82;;;7.60;99.90;;;;;;5069578;28;20052;-48
2023/10/20 07:55:46;;;;;;;9.93;7.72;;;7.70;99.90;;;;;;5064823;28;20045;-47
2023/10/20 07:58:12;;;;;;;9.40;6.22;;;7.60;99.90;;;;;;5062772;28;20072;-48
2023/10/20 08:00:37;;;;;;;8.25;6.72;;;7.70;99.90;;;;;;5077400;28;20041;-51
2023/10/20 08:03:03;;;;;;;6.80;6.10;;;7.60;99.90;;;;;;5066199;28;20045;-50
2023/10/20 08:05:29;;;;;;;8.10;5.43;;;7.60;99.90;;;;;;5071976;28;20063;-49
2023/10/20 08:07:58;;;;;;;6.82;5.55;;;7.70;99.90;;;;;;5077584;28;20047;-48
2023/10/20 08:10:24;;;;;;;8.07;6.00;;;7.70;99.90;;;;;;5067689;28;20049;-51
2023/10/20 08:12:49;;;;;;;9.10;6.50;;;7.60;99.90;;;;;;5072891;28;20069;-47
2023/10/20 08:15:15;;;;;;;6.10;4.93;;;7.70;99.90;;;;;;5083734;28;20062;-47
2023/10/20 08:17:44;;;;;;;10.18;6.47;;;7.60;99.90;;;;;;5072877;28;20477;-50
2023/10/20 08:20:11;;;;;;;8.18;6.57;;;7.60;99.90;;;;;;5071687;28;20049;-47
2023/10/20 08:22:37;;;;;;;6.28;5.03;;;7.60;99.90;;;;;;5070338;28;20063;-47
2023/10/20 08:25:02;;;;;;;6.57;4.13;;;7.60;99.90;;;;;;5067048;28;20037;-47
2023/10/20 08:27:28;;;;;;;7.88;6.20;;;7.60;99.90;;;;;;5064990;28;20079;-49
2023/10/20 08:29:57;;;;;;;7.88;5.60;;;7.60;99.90;;;;;;5071993;28;20044;-49
2023/10/20 08:32:24;;;;;;;4.50;3.13;;;7.70;99.90;;;;;;5071699;28;20049;-50
2023/10/20 08:34:50;;;;;;;6.45;4.70;;;7.70;99.90;;;;;;5071233;28;20059;-48
2023/10/20 08:37:17;;;;;;;5.63;4.65;;;7.70;99.90;;;;;;5071908;28;20040;-48
2023/10/20 08:39:43;;;;;;;7.07;4.70;;;7.70;99.90;;;;;;5071784;28;20055;-51
2023/10/20 08:42:19;;;;;;;7.50;4.90;;;7.70;99.90;;;;;;5069021;28;20529;-47
2023/10/20 08:44:46;;;;;;;4.50;3.85;;;7.70;99.90;;;;;;5062687;28;20571;-50
2023/10/20 08:47:15;;;;;;;5.35;4.00;;;7.70;99.90;;;;;;5066930;28;20499;-48
2023/10/20 08:49:42;;;;;;;5.68;4.32;;;7.60;99.90;;;;;;5076448;28;20044;-51
2023/10/20 08:52:11;;;;;;;3.80;3.30;;;7.70;99.90;;;;;;5067774;28;20052;-49
2023/10/20 08:54:37;;;;;;;4.65;3.00;;;7.60;99.90;;;;;;5062719;28;20076;-51
2023/10/20 08:57:06;;;;;;;4.80;3.35;;;7.70;99.90;;;;;;5059268;28;20495;-48
2023/10/20 08:59:33;;;;;;;5.43;3.30;;;7.70;99.90;;;;;;5062804;28;20090;-47
2023/10/20 09:01:59;;;;;;;2.67;2.47;;;7.80;99.90;;;;;;5065914;28;20076;-51
2023/10/20 09:04:26;;;;;;;3.00;2.70;;;7.60;99.90;;;;;;5069128;28;20079;-50
2023/10/20 09:06:52;;;;;;;3.80;2.90;;;7.70;99.90;;;;;;5070441;28;20060;-50
2023/10/20 09:09:22;;;;;;;5.55;3.13;;;7.70;99.90;;;;;;5058493;28;20350;-49
2023/10/20 09:11:48;;;;;;;3.22;2.47;;;7.70;99.90;;;;;;5062329;28;20041;-47
2023/10/20 09:14:14;;;;;;;4.18;2.58;;;7.80;99.90;;;;;;5066842;28;20045;-50
2023/10/20 09:16:41;;;;;;;2.88;2.42;;;7.70;99.90;;;;;;5062176;28;20059;-51
2023/10/20 09:19:11;;;;;;;4.77;3.00;;;7.80;99.90;;;;;;5067152;28;20036;-47
2023/10/20 09:21:41;;;;;;;1.50;1.40;;;7.80;99.90;;;;;;5058846;28;20067;-50
2023/10/20 09:24:08;;;;;;;2.88;2.35;;;7.80;99.90;;;;;;5067225;28;20056;-50
2023/10/20 09:26:36;;;;;;;2.28;1.73;;;7.70;99.90;;;;;;5060797;28;20056;-48
2023/10/20 09:29:05;;;;;;;3.80;2.15;;;7.70;99.90;;;;;;5057400;28;20033;-50
2023/10/20 09:31:31;;;;;;;2.20;2.00;;;7.80;99.90;;;;;;5061995;28;20250;-50
2023/10/20 09:33:57;;;;;;;2.25;2.05;;;7.70;99.90;;;;;;5062854;28;20070;-48
2023/10/20 09:36:23;;;;;;;2.15;1.90;;;7.80;99.90;;;;;;5064444;28;20040;-50
2023/10/20 09:38:56;;;;;;;1.30;1.10;;;7.60;99.90;;;;;;5057278;28;20068;-51
2023/10/20 09:41:27;;;;;;;2.38;1.50;;;7.60;99.90;;;;;;5067533;28;20052;-50
2023/10/20 09:44:05;;;;;;;2.35;1.45;;;7.60;99.90;;;;;;5073215;28;20039;-47
2023/10/20 09:46:55;;;;;;;3.47;1.63;;;7.70;99.90;;;;;;5066771;28;20407;-51
2023/10/20 09:49:26;;;;;;;2.30;1.50;;;7.60;99.90;;;;;;5070088;28;20036;-49
2023/10/20 09:51:54;;;;;;;1.05;0.95;;;7.70;99.90;;;;;;5072026;28;20165;-47
2023/10/20 09:54:26;;;;;;;1.65;1.55;;;7.70;99.90;;;;;;5066015;28;20406;-47
2023/10/20 09:56:53;;;;;;;2.03;1.25;;;7.70;99.90;;;;;;5067675;28;20533;-51
2023/10/20 09:59:24;;;;;;;2.78;0.90;;;7.70;99.90;;;;;;5071176;28;20387;-50
2023/10/20 10:01:52;;;;;;;1.20;1.00;;;7.50;99.90;;;;;;5071305;28;20041;-50
2023/10/20 10:04:28;;;;;;;1.90;1.00;;;7.60;99.90;;;;;;5071956;28;20167;-49
2023/10/20 10:06:58;;;;;;;1.55;0.80;;;7.50;99.90;;;;;;5071930;28;20398;-50
2023/10/20 10:09:35;;;;;;;0.70;0.70;;;7.50;99.90;;;;;;5074275;28;20509;-49
2023/10/20 10:12:10;;;;;;;1.63;0.73;;;7.60;99.90;;;;;;5070005;28;20036;-51
2023/10/20 10:14:36;;;;;;;1.55;0.90;;;7.60;99.90;;;;;;5060875;28;20044;-63
2023/10/20 10:17:10;;;;;;;1.50;1.00;;;7.60;99.90;;;;;;5073046;28;20479;-47
2023/10/20 10:19:48;;;;;;;1.10;0.93;;;7.60;99.90;;;;;;5070929;28;20044;-46
2023/10/20 10:22:17;;;;;;;1.08;0.98;;;7.50;99.90;;;;;;5072007;28;20597;-49
2023/10/20 10:24:57;;;;;;;1.20;1.10;;;7.60;99.90;;;;;;5071532;28;20044;-46
2023/10/20 10:27:28;;;;;;;2.97;1.00;;;7.60;99.90;;;;;;5074246;28;20076;-46
2023/10/20 10:29:58;;;;;;;1.00;0.90;;;7.50;99.90;;;;;;5070030;28;20052;-46
2023/10/20 10:32:36;;;;;;;1.00;0.90;;;7.50;99.90;;;;;;5076563;28;20040;-48
2023/10/20 10:35:04;;;;;;;1.15;0.80;;;7.50;99.90;;;;;;5075869;28;20067;-46
2023/10/20 10:37:37;;;;;;;1.02;0.80;;;7.50;99.90;;;;;;5074030;28;20036;-46
2023/10/20 10:40:09;;;;;;;2.03;0.98;;;7.50;99.90;;;;;;5072590;28;20051;-45
2023/10/20 10:42:46;;;;;;;1.50;0.70;;;7.50;99.90;;;;;;5072678;28;20048;-46
2023/10/20 10:45:33;;;;;;;0.47;0.47;;;7.60;99.90;;;;;;5084243;28;20045;-47
2023/10/20 10:48:15;;;;;;;1.77;0.90;;;7.50;99.90;;;;;;5068434;28;20472;-47
2023/10/20 10:50:42;;;;;;;0.70;0.70;;;7.40;99.90;;;;;;5064805;28;20036;-46
2023/10/20 10:53:08;;;;;;;0.73;0.60;;;7.50;99.90;;;;;;5072085;28;20079;-46
2023/10/20 10:55:35;;;;;;;0.77;0.50;;;7.50;99.90;;;;;;5079767;28;20036;-46
2023/10/20 10:58:02;;;;;;;1.40;0.60;;;7.40;99.90;;;;;;5067295;28;20549;-47
2023/10/20 11:00:28;;;;;;;0.93;0.70;;;7.40;99.90;;;;;;5068592;28;20040;-46
2023/10/20 11:02:57;;;;;;;0.70;0.63;;;7.30;99.90;;;;;;5074051;28;20036;-48
2023/10/20 11:05:23;;;;;;;1.10;0.60;;;7.30;99.90;;;;;;5066736;28;20044;-49
2023/10/20 11:07:55;;;;;;;2.35;0.55;;;7.40;99.90;;;;;;5068280;28;20044;-47
2023/10/20 11:10:21;;;;;;;0.50;0.50;;;7.30;99.90;;;;;;5072935;28;20052;-46
2023/10/20 11:12:49;;;;;;;0.50;0.47;;;7.40;99.90;;;;;;5065222;28;20613;-48
2023/10/20 11:15:15;;;;;;;0.73;0.57;;;7.30;99.90;;;;;;5067211;28;20044;-46
2023/10/20 11:17:42;;;;;;;1.58;0.50;;;7.20;99.90;;;;;;5063196;28;20044;-46
2023/10/20 11:20:09;;;;;;;0.30;0.30;;;7.40;99.90;;;;;;5069473;28;20036;-49
2023/10/20 11:22:39;;;;;;;0.70;0.63;;;7.30;99.90;;;;;;5070157;28;20052;-45
2023/10/20 11:25:05;;;;;;;1.85;0.50;;;7.40;99.90;;;;;;5066166;28;20051;-46
2023/10/20 11:27:42;;;;;;;1.77;0.60;;;7.40;99.90;;;;;;5065346;28;20045;-47
2023/10/20 11:30:09;;;;;;;1.83;0.40;;;7.40;99.90;;;;;;5069921;28;20071;-46
2023/10/20 11:32:35;;;;;;;0.40;0.40;;;7.30;99.90;;;;;;5065097;28;20045;-46
2023/10/20 11:35:04;;;;;;;0.47;0.47;;;7.40;99.90;;;;;;5065821;28;20490;-46
2023/10/20 11:37:30;;;;;;;0.57;0.50;;;7.20;99.90;;;;;;5069535;28;20046;-47
2023/10/20 11:39:55;;;;;;;0.50;0.50;;;7.40;99.90;;;;;;5070524;28;20041;-49
2023/10/20 11:42:21;;;;;;;1.90;0.60;;;7.30;99.90;;;;;;5067941;28;20072;-49
2023/10/20 11:44:46;;;;;;;0.93;0.57;;;7.30;99.90;;;;;;5068868;28;20059;-50
2023/10/20 11:47:12;;;;;;;1.15;0.60;;;7.30;99.90;;;;;;5066886;28;20132;-47
2023/10/20 11:49:38;;;;;;;0.50;0.50;;;7.40;99.90;;;;;;5071096;28;20147;-47
2023/10/20 11:52:07;;;;;;;1.00;0.35;;;7.20;99.90;;;;;;5066419;28;20131;-46
2023/10/20 11:54:33;;;;;;;1.38;0.40;;;7.30;99.90;;;;;;5063401;28;20044;-47
2023/10/20 11:56:58;;;;;;;0.45;0.45;;;7.20;99.90;;;;;;5069477;28;20047;-47
2023/10/20 11:59:24;;;;;;;2.10;0.43;;;7.40;99.90;;;;;;5063521;28;20040;-47
2023/10/20 12:01:49;;;;;;;0.68;0.50;;;7.20;99.90;;;;;;5057163;28;20036;-49
2023/10/20 12:04:15;;;;;;;2.15;0.40;;;7.30;99.90;;;;;;5056708;28;20050;-46
2023/10/20 12:06:42;;;;;;;0.30;0.30;;;7.30;99.90;;;;;;5068607;28;20037;-48
2023/10/20 12:09:08;;;;;;;0.40;0.40;;;7.40;99.90;;;;;;5064259;28;20161;-49
2023/10/20 12:11:36;;;;;;;0.55;0.50;;;7.30;99.90;;;;;;5065912;28;20120;-47
2023/10/20 12:14:03;;;;;;;0.68;0.38;;;7.20;99.90;;;;;;5060089;28;20347;-48
2023/10/20 12:16:29;;;;;;;0.40;0.40;;;7.30;99.90;;;;;;5059019;28;20184;-49
2023/10/20 12:18:55;;;;;;;0.40;0.40;;;7.50;99.90;;;;;;5057955;28;20045;-49
2023/10/20 12:21:20;;;;;;;0.40;0.40;;;7.40;99.90;;;;;;5061549;28;20510;-50
2023/10/20 12:23:46;;;;;;;1.10;0.60;;;7.40;99.90;;;;;;5058829;28;20173;-47
2023/10/20 12:26:12;;;;;;;1.42;0.60;;;7.40;99.90;;;;;;5056434;28;20041;-50
2023/10/20 12:28:37;;;;;;;0.30;0.30;;;7.40;99.90;;;;;;5059669;28;20041;-49
2023/10/20 12:31:03;;;;;;;0.50;0.50;;;7.50;99.90;;;;;;5059538;28;20124;-47
2023/10/20 12:33:29;;;;;;;0.50;0.50;;;7.50;99.90;;;;;;5056683;28;20045;-48
2023/10/20 12:35:55;;;;;;;0.40;0.40;;;7.40;99.90;;;;;;5057366;28;20136;-47
2023/10/20 12:38:24;;;;;;;0.30;0.30;;;7.40;99.90;;;;;;5055237;28;20363;-48
2023/10/20 12:40:49;;;;;;;0.35;0.35;;;7.30;99.90;;;;;;5057627;28;20037;-47
2023/10/20 12:43:16;;;;;;;0.73;0.40;;;7.30;99.90;;;;;;5056967;28;20637;-49
2023/10/20 12:45:41;;;;;;;0.57;0.40;;;7.30;99.90;;;;;;5056854;28;20052;-46
2023/10/20 12:48:07;;;;;;;0.40;0.40;;;7.40;99.90;;;;;;5061774;28;20048;-47
2023/10/20 12:50:33;;;;;;;0.40;0.40;;;7.30;99.90;;;;;;5058770;28;20048;-46
2023/10/20 12:53:03;;;;;;;0.30;0.30;;;7.20;99.90;;;;;;5054978;28;20044;-48
2023/10/20 12:55:30;;;;;;;0.50;0.35;;;7.20;99.90;;;;;;5057211;28;20043;-46
2023/10/20 12:57:56;;;;;;;0.38;0.38;;;7.30;99.90;;;;;;5061702;28;20072;-47
2023/10/20 13:00:22;;;;;;;0.32;0.32;;;7.30;99.90;;;;;;5063521;28;20120;-48
2023/10/20 13:02:52;;;;;;;0.50;0.50;;;7.30;99.90;;;;;;5055722;28;20471;-47
2023/10/20 13:05:21;;;;;;;0.40;0.40;;;7.30;99.90;;;;;;5063055;28;20118;-48
2023/10/20 13:07:47;;;;;;;0.50;0.50;;;7.20;99.90;;;;;;5057915;28;20679;-47
2023/10/20 13:10:13;;;;;;;0.50;0.40;;;7.30;99.90;;;;;;5062928;28;20461;-47
2023/10/20 13:12:39;;;;;;;0.38;0.38;;;7.10;99.90;;;;;;5067600;28;20147;-47
2023/10/20 13:15:05;;;;;;;0.38;0.32;;;7.20;99.90;;;;;;5063534;28;20462;-46